Time;durP1;ratioP1;P1;durP2;ratioP2;P2;SDS_P1;SDS_P2;PMS_P1;PMS_P2;Temp;Humidity;BMP_temperature;BMP_pressure;BME280_temperature;BME280_humidity;BME280_pressure;Samples;Min_cycle;Max_cycle;Signal;HPM_P1;HPM_P2
2023/08/15 00:01:06;;;;;;;6.28;2.38;;;22.20;87.90;;;;;;5017666;28;20037;-81
2023/08/15 00:03:32;;;;;;;7.03;2.90;;;22.10;88.20;;;;;;5017386;28;20386;-81
2023/08/15 00:05:58;;;;;;;5.60;2.03;;;22.10;88.40;;;;;;5034424;28;20055;-81
2023/08/15 00:08:24;;;;;;;5.18;2.67;;;22.10;88.60;;;;;;5001122;28;20481;-81
2023/08/15 00:10:49;;;;;;;5.03;2.05;;;22.10;88.90;;;;;;5017596;28;20124;-81
2023/08/15 00:13:15;;;;;;;6.07;2.55;;;22.00;88.90;;;;;;5017636;28;20033;-81
2023/08/15 00:15:40;;;;;;;5.38;2.55;;;22.00;89.00;;;;;;5001157;28;20029;-81
2023/08/15 00:18:06;;;;;;;9.68;3.03;;;22.00;89.10;;;;;;5017190;28;20041;-81
2023/08/15 00:20:32;;;;;;;7.65;2.80;;;22.00;89.30;;;;;;5017240;28;20033;-81
2023/08/15 00:22:58;;;;;;;6.90;2.33;;;21.90;89.40;;;;;;5033575;28;20026;-81
2023/08/15 00:25:24;;;;;;;8.50;2.80;;;21.90;89.60;;;;;;5017262;28;20021;-81
2023/08/15 00:27:49;;;;;;;8.85;3.70;;;21.90;89.70;;;;;;5033437;28;20470;-81
2023/08/15 00:30:15;;;;;;;7.88;2.88;;;21.90;89.90;;;;;;5000651;28;20030;-82
2023/08/15 00:32:40;;;;;;;7.35;2.65;;;21.80;90.00;;;;;;5016977;28;20030;-81
2023/08/15 00:35:07;;;;;;;6.60;2.47;;;21.80;90.00;;;;;;5016769;28;20040;-81
2023/08/15 00:37:32;;;;;;;8.73;2.85;;;21.60;90.00;;;;;;5016776;28;20029;-82
2023/08/15 00:39:58;;;;;;;7.13;2.90;;;21.60;90.00;;;;;;5000757;28;20108;-81
2023/08/15 00:42:24;;;;;;;7.13;2.80;;;21.60;90.20;;;;;;5016762;28;20539;-81
2023/08/15 00:44:50;;;;;;;4.43;2.25;;;21.50;90.20;;;;;;5000537;28;20030;-81
2023/08/15 00:47:16;;;;;;;9.13;2.65;;;21.50;90.30;;;;;;5034366;28;20044;-81
2023/08/15 00:49:42;;;;;;;6.35;3.00;;;21.50;90.40;;;;;;5016422;28;20393;-81
2023/08/15 00:52:09;;;;;;;6.55;2.47;;;21.40;90.50;;;;;;4997249;28;20030;-81
2023/08/15 00:54:35;;;;;;;6.53;2.70;;;21.40;90.60;;;;;;5013333;28;20026;-81
2023/08/15 00:57:05;;;;;;;5.95;2.25;;;21.40;90.80;;;;;;4980304;28;20030;-81
2023/08/15 00:59:31;;;;;;;5.60;2.35;;;21.40;91.00;;;;;;4996863;28;20176;-81
2023/08/15 01:01:59;;;;;;;6.72;2.88;;;21.40;91.10;;;;;;5014424;28;20026;-81
2023/08/15 01:04:26;;;;;;;8.43;2.92;;;21.40;91.30;;;;;;4996497;28;20053;-81
2023/08/15 01:06:51;;;;;;;7.65;2.78;;;21.40;91.40;;;;;;4996733;28;20482;-81
2023/08/15 01:09:17;;;;;;;8.68;2.60;;;21.40;91.50;;;;;;4980325;28;20037;-81
2023/08/15 01:12:02;;;;;;;8.10;2.90;;;21.30;91.60;;;;;;5014534;28;20022;-81
2023/08/15 01:14:53;;;;;;;8.48;2.63;;;21.40;91.80;;;;;;5014164;28;20030;-81
2023/08/15 01:17:28;;;;;;;7.30;2.55;;;21.40;91.90;;;;;;5012716;28;20441;-81
2023/08/15 01:19:57;;;;;;;7.53;2.65;;;21.40;92.40;;;;;;5014144;28;20029;-81
2023/08/15 01:22:27;;;;;;;8.77;2.83;;;21.40;92.20;;;;;;4996866;28;20037;-81
2023/08/15 01:24:53;;;;;;;7.00;2.78;;;21.40;92.20;;;;;;5014021;28;20084;-81
2023/08/15 01:27:19;;;;;;;6.47;3.55;;;21.40;92.30;;;;;;5013688;28;20034;-81
2023/08/15 01:29:45;;;;;;;6.18;2.35;;;21.40;92.30;;;;;;4996143;28;20029;-81
2023/08/15 01:32:23;;;;;;;9.93;3.20;;;21.40;92.40;;;;;;4979903;28;20030;-81
2023/08/15 01:34:59;;;;;;;6.28;3.15;;;21.40;92.40;;;;;;5006742;28;20028;-81
2023/08/15 01:37:29;;;;;;;6.45;2.35;;;21.40;92.50;;;;;;4996157;28;20505;-81
2023/08/15 01:39:57;;;;;;;5.47;2.97;;;21.40;92.60;;;;;;4995964;28;20114;-81
2023/08/15 01:42:24;;;;;;;6.88;3.08;;;21.40;92.70;;;;;;4996483;28;20037;-81
2023/08/15 01:44:50;;;;;;;5.20;2.78;;;21.40;92.80;;;;;;4996351;28;20036;-81
2023/08/15 01:47:16;;;;;;;10.02;3.42;;;21.40;92.90;;;;;;4996123;28;20045;-81
2023/08/15 01:49:42;;;;;;;8.68;3.08;;;21.30;93.00;;;;;;4996097;28;20386;-81
2023/08/15 01:52:07;;;;;;;8.98;2.80;;;21.30;93.20;;;;;;5013749;28;20037;-81
2023/08/15 01:54:33;;;;;;;7.57;2.78;;;21.30;93.30;;;;;;5014042;28;20030;-81
2023/08/15 01:56:59;;;;;;;5.75;3.08;;;21.30;93.50;;;;;;4979938;28;20026;-81
2023/08/15 01:59:24;;;;;;;8.02;3.65;;;21.30;93.60;;;;;;4996193;28;20109;-82
2023/08/15 02:01:50;;;;;;;10.40;4.20;;;21.30;93.70;;;;;;4997143;28;20034;-81
2023/08/15 02:04:15;;;;;;;7.13;3.95;;;21.30;93.70;;;;;;5000095;28;20026;-81
2023/08/15 02:06:41;;;;;;;8.68;3.97;;;21.30;93.60;;;;;;5016723;28;20037;-81
2023/08/15 02:09:07;;;;;;;8.00;3.33;;;21.20;93.70;;;;;;4983772;28;20025;-81
2023/08/15 02:11:32;;;;;;;8.55;3.90;;;21.20;93.70;;;;;;5016742;28;20080;-81
2023/08/15 02:13:59;;;;;;;9.30;3.80;;;21.20;93.70;;;;;;5017901;28;20475;-81
2023/08/15 02:16:24;;;;;;;9.20;3.58;;;21.20;93.60;;;;;;5017519;28;20032;-82
2023/08/15 02:18:50;;;;;;;8.65;3.90;;;21.20;93.60;;;;;;4983627;28;20057;-81
2023/08/15 02:21:15;;;;;;;8.10;4.28;;;21.20;93.60;;;;;;4983458;28;20034;-81
2023/08/15 02:23:41;;;;;;;8.10;3.75;;;21.10;93.50;;;;;;4983495;28;20033;-81
2023/08/15 02:26:06;;;;;;;10.02;3.83;;;21.10;93.50;;;;;;4999721;28;20058;-81
2023/08/15 02:28:32;;;;;;;9.70;3.72;;;21.00;93.40;;;;;;4999611;28;20025;-81
2023/08/15 02:30:58;;;;;;;8.63;3.50;;;21.00;93.40;;;;;;4999793;28;20490;-82
2023/08/15 02:33:23;;;;;;;11.70;4.65;;;21.00;93.40;;;;;;4999564;28;20026;-81
2023/08/15 02:35:51;;;;;;;9.50;4.20;;;21.00;93.40;;;;;;4999370;28;20105;-81
2023/08/15 02:38:17;;;;;;;6.93;3.45;;;21.00;93.30;;;;;;4999472;28;20072;-82
2023/08/15 02:40:43;;;;;;;10.00;4.80;;;20.90;93.60;;;;;;4999592;28;20433;-82
2023/08/15 02:43:09;;;;;;;7.70;3.65;;;20.90;93.20;;;;;;5017151;28;20552;-81
2023/08/15 02:45:34;;;;;;;10.32;4.55;;;20.80;93.20;;;;;;5016982;28;20030;-81
2023/08/15 02:48:00;;;;;;;11.38;3.75;;;20.80;93.20;;;;;;4982834;28;20520;-81
2023/08/15 02:50:26;;;;;;;6.93;3.60;;;20.70;93.10;;;;;;4999328;28;20525;-82
2023/08/15 02:52:51;;;;;;;7.55;3.83;;;20.70;93.20;;;;;;5016828;28;20060;-81
2023/08/15 02:55:17;;;;;;;13.55;4.82;;;20.70;93.10;;;;;;5016808;28;20060;-81
2023/08/15 02:57:43;;;;;;;8.75;4.40;;;20.60;93.10;;;;;;4999208;28;20026;-81
2023/08/15 03:00:12;;;;;;;7.20;3.92;;;20.60;93.20;;;;;;4999189;28;20030;-81
2023/08/15 03:02:39;;;;;;;7.55;3.33;;;20.50;93.10;;;;;;4999657;28;20022;-82
2023/08/15 03:05:06;;;;;;;13.40;4.45;;;20.50;93.00;;;;;;4999115;28;20084;-81
2023/08/15 03:07:32;;;;;;;10.85;4.50;;;20.40;92.80;;;;;;4999158;28;20438;-81
2023/08/15 03:09:57;;;;;;;9.40;4.03;;;20.40;92.80;;;;;;4999059;28;20087;-82
2023/08/15 03:12:23;;;;;;;10.48;3.47;;;20.30;92.70;;;;;;4999188;28;20034;-81
2023/08/15 03:14:49;;;;;;;7.57;3.28;;;20.30;92.70;;;;;;4998256;28;20022;-81
2023/08/15 03:17:14;;;;;;;13.52;3.10;;;20.20;92.70;;;;;;4999202;28;20124;-81
2023/08/15 03:19:40;;;;;;;8.20;3.22;;;20.20;92.60;;;;;;4998762;28;20034;-81
2023/08/15 03:22:09;;;;;;;8.02;3.10;;;20.20;92.70;;;;;;4982534;28;20100;-81
2023/08/15 03:24:34;;;;;;;8.70;3.30;;;20.10;92.60;;;;;;4982519;28;20040;-81
2023/08/15 03:27:00;;;;;;;12.00;3.42;;;20.10;92.60;;;;;;5016174;28;20038;-81
2023/08/15 03:29:25;;;;;;;6.60;2.67;;;20.10;92.50;;;;;;4982412;28;20437;-81
2023/08/15 03:31:55;;;;;;;6.85;2.72;;;20.10;92.50;;;;;;4998495;28;20021;-81
2023/08/15 03:34:21;;;;;;;6.85;2.63;;;20.10;92.60;;;;;;4999082;28;20030;-81
2023/08/15 03:36:47;;;;;;;5.10;3.10;;;20.10;92.50;;;;;;5014702;28;20498;-82
2023/08/15 03:39:13;;;;;;;9.73;3.08;;;20.00;92.50;;;;;;4998308;28;20037;-81
2023/08/15 03:41:38;;;;;;;11.75;3.30;;;20.00;92.50;;;;;;5001733;28;20030;-81
2023/08/15 03:44:04;;;;;;;9.35;3.00;;;19.90;92.50;;;;;;5014531;28;20033;-81
2023/08/15 03:46:30;;;;;;;8.05;2.42;;;19.90;92.50;;;;;;4997840;28;20053;-81
2023/08/15 03:48:55;;;;;;;8.93;2.88;;;19.90;92.50;;;;;;4998033;28;20038;-81
2023/08/15 03:51:21;;;;;;;8.75;3.45;;;19.90;92.50;;;;;;4998458;28;20026;-81
2023/08/15 03:53:47;;;;;;;8.45;3.00;;;19.80;92.50;;;;;;4982189;28;20481;-81
2023/08/15 03:56:12;;;;;;;6.30;3.00;;;19.80;92.60;;;;;;4981778;28;20029;-81
2023/08/15 03:58:38;;;;;;;8.40;3.53;;;19.70;92.60;;;;;;4981860;28;20026;-80
2023/08/15 04:01:04;;;;;;;10.32;3.63;;;19.70;92.70;;;;;;4981650;28;20501;-79
2023/08/15 04:03:30;;;;;;;8.20;3.55;;;19.70;92.70;;;;;;4997935;28;20041;-79
2023/08/15 04:05:55;;;;;;;12.88;3.53;;;19.70;92.80;;;;;;5014040;28;20030;-79
2023/08/15 04:08:21;;;;;;;9.40;3.30;;;19.60;92.80;;;;;;4981536;28;20037;-79
2023/08/15 04:10:47;;;;;;;7.50;3.08;;;19.60;92.80;;;;;;4997849;28;20037;-79
2023/08/15 04:13:13;;;;;;;9.10;3.30;;;19.50;92.80;;;;;;4981735;28;20033;-79
2023/08/15 04:15:39;;;;;;;8.73;2.92;;;19.40;92.80;;;;;;4981550;28;20077;-81
2023/08/15 04:18:06;;;;;;;6.70;3.15;;;19.40;93.00;;;;;;4997727;28;20080;-81
2023/08/15 04:20:34;;;;;;;5.57;2.85;;;19.30;93.00;;;;;;4997567;28;20137;-79
2023/08/15 04:23:00;;;;;;;6.38;2.60;;;19.30;93.10;;;;;;4981667;28;20116;-81
2023/08/15 04:25:26;;;;;;;7.65;2.83;;;19.30;93.10;;;;;;5014888;28;20148;-82
2023/08/15 04:27:51;;;;;;;6.93;3.15;;;19.40;93.20;;;;;;4997530;28;20026;-79
2023/08/15 04:30:18;;;;;;;5.90;2.67;;;19.30;93.20;;;;;;5015027;28;20025;-79
2023/08/15 04:32:46;;;;;;;9.82;2.75;;;19.30;93.30;;;;;;4981192;28;20026;-80
2023/08/15 04:35:11;;;;;;;7.75;2.72;;;19.20;93.30;;;;;;5013489;28;20025;-79
2023/08/15 04:37:37;;;;;;;7.13;2.33;;;19.20;93.40;;;;;;4980882;28;20026;-79
2023/08/15 04:40:03;;;;;;;6.78;2.55;;;19.10;93.40;;;;;;4981179;28;20038;-80
2023/08/15 04:42:29;;;;;;;9.15;2.42;;;19.10;93.50;;;;;;4965199;28;20040;-81
2023/08/15 04:44:54;;;;;;;6.95;2.60;;;19.00;93.50;;;;;;4980979;28;20030;-81
2023/08/15 04:47:20;;;;;;;6.68;2.40;;;19.00;93.60;;;;;;5013128;28;20104;-79
2023/08/15 04:49:46;;;;;;;6.55;2.17;;;18.90;93.70;;;;;;4980855;28;20032;-80
2023/08/15 04:52:16;;;;;;;6.78;2.60;;;19.00;93.80;;;;;;4996914;28;20628;-80
2023/08/15 04:54:41;;;;;;;7.30;2.17;;;18.90;93.90;;;;;;5014499;28;20533;-81
2023/08/15 04:57:07;;;;;;;5.72;2.35;;;18.90;93.90;;;;;;4980814;28;20033;-81
2023/08/15 04:59:32;;;;;;;5.43;2.10;;;18.90;94.00;;;;;;5005686;28;20036;-78
2023/08/15 05:01:58;;;;;;;7.55;2.03;;;18.90;94.10;;;;;;5015267;28;20460;-80
2023/08/15 05:04:24;;;;;;;6.05;2.10;;;18.90;94.10;;;;;;5014914;28;20386;-80
2023/08/15 05:06:49;;;;;;;8.10;2.00;;;19.00;94.20;;;;;;5015162;28;20068;-80
2023/08/15 05:09:15;;;;;;;6.68;1.92;;;19.00;94.30;;;;;;5033077;28;20040;-80
2023/08/15 05:11:42;;;;;;;7.32;2.10;;;19.00;94.30;;;;;;4999301;28;20432;-80
2023/08/15 05:14:08;;;;;;;4.88;2.55;;;19.00;94.30;;;;;;5015344;28;20489;-80
2023/08/15 05:16:34;;;;;;;8.00;2.30;;;18.90;94.40;;;;;;5033989;28;20056;-80
2023/08/15 05:18:59;;;;;;;8.35;2.17;;;18.90;94.40;;;;;;5016309;28;20402;-80
2023/08/15 05:21:25;;;;;;;3.45;1.90;;;18.90;94.50;;;;;;4999662;28;20030;-80
2023/08/15 05:23:51;;;;;;;6.03;1.92;;;18.90;94.60;;;;;;4999778;28;20037;-80
2023/08/15 05:26:17;;;;;;;7.75;2.10;;;18.90;94.70;;;;;;5016331;28;20042;-80
2023/08/15 05:28:42;;;;;;;6.90;2.05;;;18.90;94.70;;;;;;4999400;28;20056;-80
2023/08/15 05:31:08;;;;;;;5.93;1.90;;;18.90;94.80;;;;;;4999470;28;20025;-80
2023/08/15 05:33:34;;;;;;;5.80;2.13;;;18.90;94.90;;;;;;4999529;28;20025;-80
2023/08/15 05:35:59;;;;;;;5.38;1.80;;;18.90;94.90;;;;;;5015560;28;20029;-80
2023/08/15 05:38:25;;;;;;;4.75;1.73;;;18.90;94.90;;;;;;5015618;28;20025;-80
2023/08/15 05:40:50;;;;;;;5.10;1.95;;;18.90;95.00;;;;;;4999423;28;20045;-80
2023/08/15 05:43:16;;;;;;;6.90;2.15;;;18.90;95.00;;;;;;5015882;28;20482;-80
2023/08/15 05:45:45;;;;;;;5.63;1.80;;;18.90;95.00;;;;;;5015994;28;20030;-80
2023/08/15 05:48:11;;;;;;;7.88;2.38;;;18.90;95.10;;;;;;5015993;28;20057;-80
2023/08/15 05:50:37;;;;;;;7.28;1.83;;;18.90;95.20;;;;;;4999349;28;20025;-80
2023/08/15 05:53:03;;;;;;;8.23;2.08;;;19.00;95.30;;;;;;4999275;28;20493;-80
2023/08/15 05:55:28;;;;;;;7.97;2.30;;;18.90;95.20;;;;;;4999325;28;20021;-80
2023/08/15 05:57:54;;;;;;;8.43;2.50;;;18.90;95.30;;;;;;5015829;28;20030;-80
2023/08/15 06:00:20;;;;;;;7.22;2.38;;;18.90;95.40;;;;;;4999442;28;20083;-80
2023/08/15 06:02:45;;;;;;;8.27;2.55;;;18.90;95.40;;;;;;4997505;28;20034;-80
2023/08/15 06:05:11;;;;;;;9.35;2.58;;;19.00;95.50;;;;;;5015651;28;20267;-80
2023/08/15 06:07:36;;;;;;;8.52;2.50;;;19.00;95.60;;;;;;4998846;28;20082;-80
2023/08/15 06:10:02;;;;;;;5.85;2.42;;;19.00;95.70;;;;;;5015523;28;20362;-79
2023/08/15 06:12:28;;;;;;;13.63;2.33;;;19.10;95.70;;;;;;5015478;28;20432;-80
2023/08/15 06:14:53;;;;;;;9.68;2.55;;;19.10;95.80;;;;;;5015552;28;20034;-80
2023/08/15 06:17:19;;;;;;;8.90;2.47;;;19.10;95.90;;;;;;4999109;28;20056;-80
2023/08/15 06:19:45;;;;;;;7.93;2.53;;;19.10;95.90;;;;;;5031890;28;20036;-80
2023/08/15 06:22:10;;;;;;;5.05;2.53;;;19.10;95.90;;;;;;4999264;28;20072;-80
2023/08/15 06:24:36;;;;;;;9.00;3.13;;;19.10;96.00;;;;;;4999090;28;20060;-80
2023/08/15 06:27:03;;;;;;;8.68;3.25;;;19.10;96.00;;;;;;5032910;28;20034;-80
2023/08/15 06:29:28;;;;;;;8.18;2.92;;;19.10;96.10;;;;;;5031713;28;20371;-80
2023/08/15 06:31:54;;;;;;;6.90;2.70;;;19.10;96.20;;;;;;5031499;28;20068;-80
2023/08/15 06:34:19;;;;;;;5.82;2.92;;;19.20;96.30;;;;;;5032965;28;20044;-81
2023/08/15 06:36:45;;;;;;;7.10;2.63;;;19.20;96.30;;;;;;5015197;28;20525;-81
2023/08/15 06:39:11;;;;;;;7.10;2.60;;;19.20;96.40;;;;;;5015373;28;20036;-81
2023/08/15 06:41:37;;;;;;;8.35;2.85;;;19.20;96.50;;;;;;5015435;28;20022;-81
2023/08/15 06:44:03;;;;;;;9.20;3.72;;;19.20;96.70;;;;;;5015677;28;20025;-80
2023/08/15 06:46:29;;;;;;;9.07;2.70;;;19.20;96.70;;;;;;4998800;28;20458;-80
2023/08/15 06:48:55;;;;;;;8.02;2.47;;;19.30;96.80;;;;;;4999820;28;20064;-80
2023/08/15 06:51:20;;;;;;;9.07;3.33;;;19.30;96.90;;;;;;5002769;28;20026;-80
2023/08/15 06:53:49;;;;;;;7.88;2.63;;;19.30;97.00;;;;;;5018879;28;20462;-80
2023/08/15 06:56:15;;;;;;;9.93;2.83;;;19.40;97.00;;;;;;5035573;28;20017;-81
2023/08/15 06:58:40;;;;;;;5.95;2.40;;;19.40;97.30;;;;;;5013218;28;20140;-80
2023/08/15 07:01:06;;;;;;;6.88;2.85;;;19.40;97.10;;;;;;5010669;28;20116;-80
2023/08/15 07:03:33;;;;;;;10.43;2.78;;;19.50;97.40;;;;;;5001819;28;20033;-80
2023/08/15 07:05:59;;;;;;;10.18;3.38;;;19.50;97.20;;;;;;5018750;28;20017;-81
2023/08/15 07:08:25;;;;;;;7.35;2.47;;;19.60;97.40;;;;;;5018432;28;20159;-81
2023/08/15 07:10:55;;;;;;;12.18;3.40;;;19.60;97.50;;;;;;5002686;28;20386;-81
2023/08/15 07:13:21;;;;;;;10.68;3.75;;;19.60;97.60;;;;;;5018349;28;20099;-81
2023/08/15 07:15:52;;;;;;;11.40;3.53;;;19.70;97.80;;;;;;5034890;28;20466;-81
2023/08/15 07:18:18;;;;;;;9.02;3.65;;;19.80;97.90;;;;;;5036134;28;20029;-81
2023/08/15 07:20:44;;;;;;;11.23;4.22;;;19.80;97.90;;;;;;5034705;28;20125;-79
2023/08/15 07:23:10;;;;;;;8.48;2.97;;;19.80;97.90;;;;;;5018477;28;20036;-81
2023/08/15 07:25:41;;;;;;;9.52;2.45;;;19.90;97.90;;;;;;5018325;28;20120;-81
2023/08/15 07:28:07;;;;;;;11.98;2.97;;;20.00;97.90;;;;;;5035866;28;20131;-80
2023/08/15 07:30:33;;;;;;;9.25;2.65;;;20.10;97.90;;;;;;5018221;28;20025;-81
2023/08/15 07:32:59;;;;;;;8.82;2.55;;;20.10;97.90;;;;;;5034582;28;20113;-80
2023/08/15 07:35:24;;;;;;;8.55;2.58;;;20.20;97.80;;;;;;5018072;28;20024;-80
2023/08/15 07:37:50;;;;;;;11.40;2.90;;;20.30;97.80;;;;;;5006315;28;20037;-79
2023/08/15 07:40:20;;;;;;;8.90;2.47;;;20.30;97.80;;;;;;4998301;28;20026;-80
2023/08/15 07:42:49;;;;;;;7.65;2.30;;;20.50;97.80;;;;;;5014345;28;20081;-81
2023/08/15 07:45:16;;;;;;;10.73;2.47;;;20.50;97.70;;;;;;5014466;28;20021;-80
2023/08/15 07:47:41;;;;;;;7.93;2.42;;;20.60;97.60;;;;;;4998215;28;20066;-81
2023/08/15 07:50:19;;;;;;;10.68;2.85;;;20.70;97.60;;;;;;5014981;28;20446;-81
2023/08/15 07:52:45;;;;;;;6.60;1.85;;;20.80;97.50;;;;;;5016007;28;20060;-81
2023/08/15 07:55:11;;;;;;;10.27;2.25;;;20.90;97.40;;;;;;5014312;28;20057;-80
2023/08/15 07:57:38;;;;;;;7.85;1.90;;;21.00;97.30;;;;;;5014333;28;20033;-80
2023/08/15 08:00:04;;;;;;;6.88;1.85;;;21.10;97.10;;;;;;5015219;28;20386;-81
2023/08/15 08:02:30;;;;;;;9.65;3.03;;;21.20;97.00;;;;;;4997934;28;20030;-81
2023/08/15 08:04:57;;;;;;;7.47;1.88;;;21.20;96.40;;;;;;4997867;28;20506;-81
2023/08/15 08:07:22;;;;;;;8.88;2.30;;;21.30;96.30;;;;;;4997732;28;20129;-81
2023/08/15 08:09:48;;;;;;;11.00;2.55;;;21.30;96.10;;;;;;5014035;28;20505;-81
2023/08/15 08:12:13;;;;;;;6.65;1.73;;;21.30;95.90;;;;;;4997791;28;20037;-81
2023/08/15 08:14:39;;;;;;;7.15;1.95;;;21.30;95.70;;;;;;4981562;28;20033;-80
2023/08/15 08:17:05;;;;;;;7.03;1.88;;;21.40;95.80;;;;;;5013923;28;20037;-81
2023/08/15 08:19:31;;;;;;;6.93;1.90;;;21.50;95.70;;;;;;5015252;28;20092;-81
2023/08/15 08:21:56;;;;;;;8.65;1.65;;;21.60;95.60;;;;;;5013851;28;20029;-81
2023/08/15 08:24:22;;;;;;;5.93;1.27;;;21.70;95.50;;;;;;5013844;28;20430;-81
2023/08/15 08:26:49;;;;;;;8.07;1.63;;;21.90;95.40;;;;;;5013741;28;20030;-80
2023/08/15 08:29:14;;;;;;;7.10;1.60;;;22.10;95.40;;;;;;5013784;28;20014;-81
2023/08/15 08:31:41;;;;;;;8.90;2.08;;;22.30;95.20;;;;;;4997222;28;20072;-81
2023/08/15 08:34:14;;;;;;;7.07;1.88;;;22.40;94.70;;;;;;4997458;28;20029;-81
2023/08/15 08:36:40;;;;;;;6.32;1.27;;;22.60;94.30;;;;;;5013889;28;20026;-81
2023/08/15 08:39:08;;;;;;;9.30;2.10;;;22.70;93.90;;;;;;5013432;28;20037;-80
2023/08/15 08:41:38;;;;;;;7.32;1.40;;;22.70;93.50;;;;;;4997491;28;20030;-81
2023/08/15 08:44:04;;;;;;;6.00;1.20;;;22.80;93.30;;;;;;5013399;28;20026;-81
2023/08/15 08:46:30;;;;;;;9.02;1.50;;;22.80;92.40;;;;;;4996928;28;20540;-80
2023/08/15 08:48:59;;;;;;;5.40;0.90;;;22.80;91.90;;;;;;5014487;28;20522;-81
2023/08/15 08:51:26;;;;;;;5.20;1.08;;;22.80;91.40;;;;;;5013425;28;20116;-80
2023/08/15 08:53:52;;;;;;;4.40;0.93;;;22.80;91.20;;;;;;5013310;28;20124;-81
2023/08/15 08:56:18;;;;;;;5.55;1.50;;;22.80;91.10;;;;;;5014415;28;20386;-80
2023/08/15 08:58:49;;;;;;;7.70;1.42;;;22.70;90.80;;;;;;5014526;28;20026;-87
2023/08/15 09:01:15;;;;;;;7.78;1.83;;;22.70;90.70;;;;;;5014745;28;20029;-87
2023/08/15 09:03:42;;;;;;;6.53;1.58;;;22.70;90.70;;;;;;4996917;28;20457;-88
2023/08/15 09:06:07;;;;;;;5.85;1.85;;;22.70;90.80;;;;;;5013084;28;20014;-89
2023/08/15 09:08:33;;;;;;;8.32;1.77;;;22.70;90.70;;;;;;5013105;28;20382;-88
2023/08/15 09:10:59;;;;;;;6.10;1.58;;;22.70;90.70;;;;;;5012531;28;20026;-81
2023/08/15 09:13:24;;;;;;;7.45;1.85;;;22.70;90.60;;;;;;5012705;28;20442;-80
2023/08/15 09:15:51;;;;;;;4.65;1.33;;;22.70;90.60;;;;;;4996601;28;20581;-80
2023/08/15 09:18:22;;;;;;;6.35;1.70;;;22.70;90.40;;;;;;5013036;28;20037;-80
2023/08/15 09:20:48;;;;;;;7.78;1.73;;;22.80;90.30;;;;;;5012730;28;20058;-82
2023/08/15 09:23:15;;;;;;;6.13;1.40;;;22.80;90.30;;;;;;5012779;28;20359;-81
2023/08/15 09:25:41;;;;;;;7.07;1.45;;;22.90;90.30;;;;;;5014098;28;20026;-81
2023/08/15 09:28:07;;;;;;;6.93;1.27;;;23.00;90.30;;;;;;5014412;28;20037;-88
2023/08/15 09:30:32;;;;;;;6.32;1.33;;;23.10;90.20;;;;;;4980201;28;20501;-86
2023/08/15 09:33:01;;;;;;;5.10;1.23;;;23.10;89.90;;;;;;5012674;28;20057;-87
2023/08/15 09:35:30;;;;;;;6.05;1.55;;;23.20;90.00;;;;;;5014164;28;20022;-81
2023/08/15 09:37:55;;;;;;;7.80;1.90;;;23.20;89.10;;;;;;5012522;28;20026;-81
2023/08/15 09:40:25;;;;;;;6.15;1.70;;;23.30;88.70;;;;;;4996197;28;20113;-80
2023/08/15 09:42:52;;;;;;;4.05;1.40;;;23.40;88.40;;;;;;5012537;28;20038;-80
2023/08/15 09:45:18;;;;;;;10.05;1.65;;;23.40;87.50;;;;;;4996364;28;20026;-89
2023/08/15 09:47:44;;;;;;;8.80;1.92;;;23.40;87.10;;;;;;5012570;28;20096;-87
2023/08/15 09:50:12;;;;;;;8.32;1.80;;;23.50;86.60;;;;;;5012688;28;20026;-89
2023/08/15 09:52:43;;;;;;;10.13;2.22;;;23.50;86.70;;;;;;5013653;28;20028;-81
2023/08/15 09:55:14;;;;;;;8.93;2.40;;;23.60;86.70;;;;;;4996092;28;20029;-88
2023/08/15 09:57:41;;;;;;;7.68;2.70;;;23.70;86.30;;;;;;5013792;28;20033;-85
2023/08/15 10:00:11;;;;;;;11.90;2.10;;;23.90;86.20;;;;;;5012234;28;20056;-80
2023/08/15 10:02:44;;;;;;;9.02;2.22;;;24.10;86.10;;;;;;5012367;28;20030;-81
2023/08/15 10:05:11;;;;;;;5.43;1.63;;;24.30;85.70;;;;;;5012545;28;20469;-81
2023/08/15 10:07:38;;;;;;;6.47;1.98;;;24.40;85.50;;;;;;5012260;28;20030;-81
2023/08/15 10:10:04;;;;;;;5.68;1.55;;;24.50;85.30;;;;;;4996043;28;20049;-81
2023/08/15 10:12:31;;;;;;;9.60;2.75;;;24.70;85.20;;;;;;5012261;28;20475;-82
2023/08/15 10:14:58;;;;;;;8.43;1.83;;;24.90;84.70;;;;;;5012103;28;20025;-81
2023/08/15 10:17:26;;;;;;;9.50;2.28;;;25.00;84.00;;;;;;5013416;28;20054;-80
2023/08/15 10:19:54;;;;;;;7.68;2.10;;;25.00;82.70;;;;;;5012106;28;20452;-81
2023/08/15 10:22:20;;;;;;;7.00;1.95;;;25.00;82.10;;;;;;5013722;28;20109;-79
2023/08/15 10:24:46;;;;;;;6.10;1.65;;;25.00;82.00;;;;;;5016091;28;20121;-79
2023/08/15 10:27:15;;;;;;;7.60;2.17;;;24.90;81.90;;;;;;5015984;28;20034;-85
2023/08/15 10:29:58;;;;;;;5.75;1.80;;;25.00;81.50;;;;;;5017646;28;20351;-85
2023/08/15 10:32:26;;;;;;;6.32;1.83;;;25.00;81.20;;;;;;5017097;28;20022;-87
2023/08/15 10:34:53;;;;;;;5.05;1.63;;;25.20;81.20;;;;;;5016777;28;20022;-86
2023/08/15 10:37:28;;;;;;;7.28;2.30;;;25.10;80.60;;;;;;4999639;28;20109;-88
2023/08/15 10:40:08;;;;;;;6.97;1.92;;;25.10;80.40;;;;;;5000082;28;20121;-87
2023/08/15 10:43:02;;;;;;;5.00;1.45;;;25.20;80.80;;;;;;5015796;28;20025;-84
2023/08/15 10:45:50;;;;;;;5.53;1.40;;;25.60;81.10;;;;;;5015961;28;20046;-80
2023/08/15 10:48:42;;;;;;;3.78;1.02;;;26.10;80.60;;;;;;5015409;28;20479;-79
2023/08/15 10:51:38;;;;;;;6.55;1.40;;;26.70;80.30;;;;;;5016960;28;20022;-85
2023/08/15 10:54:06;;;;;;;3.53;1.15;;;27.20;79.30;;;;;;5016423;28;20038;-85
2023/08/15 10:56:37;;;;;;;5.53;1.20;;;27.50;78.00;;;;;;5015507;28;20010;-84
2023/08/15 10:59:14;;;;;;;5.57;1.33;;;27.60;75.50;;;;;;5015845;28;20038;-80
2023/08/15 11:01:41;;;;;;;4.75;1.10;;;28.00;75.60;;;;;;5015342;28;20030;-79
2023/08/15 11:04:13;;;;;;;5.78;1.40;;;28.40;75.10;;;;;;5015936;28;20037;-87
2023/08/15 11:06:52;;;;;;;4.45;1.17;;;28.70;74.30;;;;;;5015565;28;20029;-87
2023/08/15 11:09:18;;;;;;;4.18;1.52;;;29.10;72.90;;;;;;5015349;28;20112;-81
2023/08/15 11:11:46;;;;;;;4.70;1.08;;;29.60;70.60;;;;;;5015227;28;20512;-81
2023/08/15 11:14:17;;;;;;;4.85;1.35;;;29.90;69.40;;;;;;5015155;28;20022;-81
2023/08/15 11:16:44;;;;;;;6.18;1.33;;;30.00;67.50;;;;;;5016672;28;20060;-80
2023/08/15 11:19:10;;;;;;;4.40;1.10;;;30.10;66.50;;;;;;5015044;28;20109;-84
2023/08/15 11:21:36;;;;;;;6.22;1.30;;;29.90;65.50;;;;;;5015170;28;20453;-85
2023/08/15 11:24:02;;;;;;;5.63;1.30;;;29.70;64.50;;;;;;5015094;28;20030;-84
2023/08/15 11:26:28;;;;;;;5.93;1.33;;;29.50;64.20;;;;;;5012759;28;20113;-80
2023/08/15 11:28:54;;;;;;;6.60;1.35;;;29.20;64.50;;;;;;4982410;28;20030;-81
2023/08/15 11:31:20;;;;;;;5.00;1.20;;;29.00;64.20;;;;;;4998177;28;20041;-83
2023/08/15 11:33:51;;;;;;;5.80;2.00;;;28.80;64.10;;;;;;5015850;28;20052;-85
2023/08/15 11:36:17;;;;;;;5.22;1.80;;;28.70;64.40;;;;;;4998030;28;20033;-86
2023/08/15 11:38:43;;;;;;;5.55;1.65;;;28.70;63.70;;;;;;4998347;28;20026;-87
2023/08/15 11:41:09;;;;;;;6.60;2.45;;;28.70;63.60;;;;;;4998287;28;20153;-84
2023/08/15 11:43:34;;;;;;;5.82;1.92;;;28.60;63.30;;;;;;4998464;28;20049;-85
2023/08/15 11:46:06;;;;;;;6.95;2.08;;;28.50;63.50;;;;;;5015904;28;20034;-89
2023/08/15 11:48:32;;;;;;;7.10;2.40;;;28.20;63.70;;;;;;5015422;28;20402;-87
2023/08/15 11:50:59;;;;;;;8.77;2.65;;;27.90;64.10;;;;;;5015751;28;20041;-89
2023/08/15 11:53:25;;;;;;;8.75;3.22;;;27.70;64.70;;;;;;5014309;28;20022;-83
2023/08/15 11:55:51;;;;;;;6.35;2.20;;;27.40;65.00;;;;;;4998002;28;20052;-84
2023/08/15 11:58:28;;;;;;;8.95;1.95;;;27.10;65.50;;;;;;5014166;28;20137;-79
2023/08/15 12:00:55;;;;;;;7.80;2.40;;;27.10;66.50;;;;;;5014331;28;20064;-80
2023/08/15 12:03:23;;;;;;;7.22;1.90;;;27.40;67.00;;;;;;4998392;28;20513;-80
2023/08/15 12:05:56;;;;;;;6.97;1.88;;;28.00;67.30;;;;;;5014150;28;20041;-80
2023/08/15 12:08:25;;;;;;;5.80;1.67;;;28.70;67.40;;;;;;5014136;28;20441;-85
2023/08/15 12:10:56;;;;;;;7.45;2.05;;;29.60;66.60;;;;;;4997800;28;20417;-80
2023/08/15 12:13:33;;;;;;;5.90;1.70;;;30.30;65.10;;;;;;5014030;28;20206;-88
2023/08/15 12:16:01;;;;;;;6.50;1.58;;;30.90;63.50;;;;;;5014155;28;20060;-87
2023/08/15 12:18:27;;;;;;;7.18;2.03;;;31.30;61.60;;;;;;4982116;28;20029;-80
2023/08/15 12:20:53;;;;;;;5.85;1.50;;;31.40;60.40;;;;;;4981731;28;20532;-81
2023/08/15 12:23:18;;;;;;;7.45;2.00;;;31.70;59.90;;;;;;4998000;28;20030;-81
2023/08/15 12:25:44;;;;;;;4.85;1.50;;;32.10;58.70;;;;;;4997938;28;20092;-79
2023/08/15 12:28:10;;;;;;;7.10;2.20;;;32.20;57.80;;;;;;4997438;28;20115;-86
2023/08/15 12:30:35;;;;;;;5.97;1.42;;;32.00;56.60;;;;;;5015211;28;20033;-86
2023/08/15 12:33:01;;;;;;;5.90;1.52;;;32.00;57.20;;;;;;5015202;28;20037;-86
2023/08/15 12:35:28;;;;;;;6.18;1.50;;;32.00;56.90;;;;;;5013568;28;20026;-81
2023/08/15 12:37:54;;;;;;;5.85;1.83;;;32.10;56.40;;;;;;4981490;28;20038;-80
2023/08/15 12:40:19;;;;;;;4.50;1.55;;;31.90;55.90;;;;;;4981160;28;20040;-81
2023/08/15 12:42:45;;;;;;;7.47;1.55;;;32.00;56.40;;;;;;4997039;28;20026;-85
2023/08/15 12:45:11;;;;;;;6.13;2.05;;;32.30;56.70;;;;;;4981263;28;20471;-86